Terminal Aerodrome Forecast
Issued by NWS Quad Cities IA IL

Home | Current Version | Previous Version | Text Only | Print | Product List | Glossary On
Versions: 1 2 3 4 5 6 7 8 9 10 11 12 13 14 15 16 17 18 19 20 21 22 23 24 25 26 27 28 29 30 31 32 33 34 35
465
FTUS43 KDVN 200826 AAA
TAFMLI
TAF AMD
KMLI 200826Z 2008/2106 27003KT 3SM -RA BR SCT005 OVC030
      TEMPO 2008/2011 1SM -RA BR BKN005
     FM201100 VRB03KT 2SM -SHRA BR OVC003
     FM201300 18004KT 1SM BR OVC002
     FM201600 27006KT 2SM -SHRA BR OVC005
     FM202000 30010KT 4SM BR OVC010
     FM202200 31013KT P6SM BKN020=

USA.gov is the U.S. government's official web portal to all federal, state and local government web resources and services.